createdAt,value
2022-12-08T00:01:43.413Z,99580.20
2022-12-08T00:04:11.938Z,99589.80
2022-12-08T00:07:02.234Z,99588.40
2022-12-08T00:09:38.729Z,99595.80
2022-12-08T00:12:16.618Z,99593.00
2022-12-08T00:14:47.728Z,99598.00
2022-12-08T00:17:17.449Z,99605.40
2022-12-08T00:19:46.516Z,99608.80
2022-12-08T00:22:15.424Z,99612.40
2022-12-08T00:24:46.519Z,99611.40
2022-12-08T00:27:15.897Z,99610.80
2022-12-08T00:29:45.364Z,99615.00
2022-12-08T00:32:13.599Z,99611.20
2022-12-08T00:34:41.625Z,99614.20
2022-12-08T00:37:09.625Z,99615.40
2022-12-08T00:39:37.492Z,99620.40
2022-12-08T00:42:14.568Z,99614.40
2022-12-08T00:44:45.895Z,99619.20
2022-12-08T00:47:14.838Z,99628.80
2022-12-08T00:49:43.004Z,99631.20
2022-12-08T00:52:10.979Z,99633.00
2022-12-08T00:54:39.098Z,99635.40
2022-12-08T00:57:07.114Z,99645.40
2022-12-08T00:59:34.988Z,99644.80
2022-12-08T01:02:02.999Z,99648.80
2022-12-08T01:04:30.962Z,99655.80
2022-12-08T01:06:58.887Z,99652.80
2022-12-08T01:09:26.782Z,99653.00
2022-12-08T01:11:54.709Z,99656.80
2022-12-08T01:14:22.703Z,99653.00
2022-12-08T01:16:51.020Z,99657.40
2022-12-08T01:19:18.946Z,99664.60
2022-12-08T01:21:47.681Z,99670.20
2022-12-08T01:24:20.558Z,99671.40
2022-12-08T01:26:50.661Z,99668.80
2022-12-08T01:29:18.652Z,99673.40
2022-12-08T01:31:46.696Z,99668.00
2022-12-08T01:34:14.935Z,99669.00
2022-12-08T01:36:44.562Z,99669.00
2022-12-08T01:39:18.984Z,99672.40
2022-12-08T01:41:48.088Z,99671.20
2022-12-08T01:44:15.901Z,99678.80
2022-12-08T01:46:49.727Z,99678.60
2022-12-08T01:49:30.664Z,99677.20
2022-12-08T01:52:07.563Z,99675.80
2022-12-08T01:54:46.556Z,99679.40
2022-12-08T01:57:27.699Z,99682.60
2022-12-08T02:00:08.480Z,99682.40
2022-12-08T02:02:46.461Z,99684.40
2022-12-08T02:05:15.324Z,99683.80
2022-12-08T02:07:45.173Z,99687.00
2022-12-08T02:10:20.362Z,99690.40
2022-12-08T02:12:53.274Z,99689.60
2022-12-08T02:15:47.953Z,99688.20
2022-12-08T02:18:37.498Z,99688.60
2022-12-08T02:21:25.684Z,99689.80
2022-12-08T02:24:40.547Z,99685.80
2022-12-08T02:27:28.152Z,99687.60
2022-12-08T02:30:13.231Z,99683.20
2022-12-08T02:33:30.896Z,99679.80
2022-12-08T02:36:12.207Z,99691.20
2022-12-08T02:39:05.605Z,99695.00
2022-12-08T02:42:12.550Z,99700.40
2022-12-08T02:45:01.677Z,99701.80
2022-12-08T02:47:32.701Z,99704.40
2022-12-08T02:50:01.140Z,99700.60
2022-12-08T02:52:29.700Z,99704.00
2022-12-08T02:55:06.235Z,99707.40
2022-12-08T02:57:56.914Z,99715.00
2022-12-08T03:00:29.722Z,99715.00
2022-12-08T03:03:35.193Z,99714.40
2022-12-08T03:06:14.588Z,99710.60
2022-12-08T03:08:55.090Z,99716.40
2022-12-08T03:11:35.700Z,99716.80
2022-12-08T03:14:07.904Z,99714.60
2022-12-08T03:16:41.608Z,99711.00
2022-12-08T03:19:26.914Z,99707.60
2022-12-08T03:22:03.429Z,99708.40
2022-12-08T03:24:39.650Z,99701.20
2022-12-08T03:27:12.702Z,99705.40
2022-12-08T03:29:41.226Z,99705.20
2022-12-08T03:32:16.361Z,99711.20
2022-12-08T03:34:48.253Z,99716.40
2022-12-08T03:37:16.391Z,99716.40
2022-12-08T03:39:44.730Z,99714.00
2022-12-08T03:42:12.785Z,99709.40
2022-12-08T03:44:40.713Z,99720.00
2022-12-08T03:47:08.611Z,99724.80
2022-12-08T03:49:36.659Z,99725.80
2022-12-08T03:52:04.837Z,99728.00
2022-12-08T03:54:32.766Z,99730.80
2022-12-08T03:57:00.742Z,99734.40
2022-12-08T03:59:28.706Z,99734.60
2022-12-08T04:01:56.691Z,99733.60
2022-12-08T04:04:24.690Z,99729.00
2022-12-08T04:06:52.638Z,99731.40
2022-12-08T04:09:20.619Z,99733.60
2022-12-08T04:11:49.291Z,99732.60
2022-12-08T04:14:17.300Z,99735.00
2022-12-08T04:16:45.212Z,99736.00
2022-12-08T04:19:13.143Z,99741.20
2022-12-08T04:21:40.992Z,99741.00
2022-12-08T04:24:09.975Z,99740.20
2022-12-08T04:26:37.981Z,99744.00
2022-12-08T04:29:05.917Z,99740.20
2022-12-08T04:31:33.962Z,99738.80
2022-12-08T04:34:02.064Z,99743.00
2022-12-08T04:36:29.902Z,99739.80
2022-12-08T04:38:57.964Z,99738.60
2022-12-08T04:41:25.816Z,99739.60
2022-12-08T04:43:53.805Z,99745.20
2022-12-08T04:46:21.660Z,99743.80
2022-12-08T04:48:49.620Z,99747.60
2022-12-08T04:51:20.498Z,99749.00
2022-12-08T04:53:48.795Z,99750.80
2022-12-08T04:56:19.392Z,99755.80
2022-12-08T04:58:47.383Z,99760.40
2022-12-08T05:01:15.670Z,99758.00
2022-12-08T05:03:43.641Z,99757.40
2022-12-08T05:06:14.437Z,99762.20
2022-12-08T05:08:43.945Z,99766.60
2022-12-08T05:11:13.592Z,99764.00
2022-12-08T05:13:41.621Z,99770.40
2022-12-08T05:16:13.766Z,99762.00
2022-12-08T05:18:43.632Z,99765.60
2022-12-08T05:21:11.964Z,99769.40
2022-12-08T05:23:39.809Z,99764.00
2022-12-08T05:26:07.891Z,99769.20
2022-12-08T05:28:43.816Z,99773.60
2022-12-08T05:31:14.547Z,99780.00
2022-12-08T05:33:44.108Z,99783.40
2022-12-08T05:36:15.149Z,99783.80
2022-12-08T05:38:44.134Z,99779.00
2022-12-08T05:41:17.575Z,99784.80
2022-12-08T05:43:46.420Z,99781.20
2022-12-08T05:46:15.507Z,99775.60
2022-12-08T05:48:43.880Z,99783.40
2022-12-08T05:51:20.746Z,99784.40
2022-12-08T05:53:50.549Z,99785.80
2022-12-08T05:56:19.987Z,99788.40
2022-12-08T05:58:48.084Z,99798.60
2022-12-08T06:01:30.074Z,99792.00
2022-12-08T06:04:01.458Z,99795.20
2022-12-08T06:06:30.616Z,99793.40
2022-12-08T06:08:58.473Z,99803.60
2022-12-08T06:11:30.255Z,99806.60
2022-12-08T06:13:59.595Z,99807.40
2022-12-08T06:16:29.067Z,99813.20
2022-12-08T06:18:57.984Z,99817.80
2022-12-08T06:21:25.879Z,99819.00
2022-12-08T06:23:54.816Z,99828.20
2022-12-08T06:26:23.449Z,99829.40
2022-12-08T06:28:52.339Z,99829.80
2022-12-08T06:31:26.335Z,99835.00
2022-12-08T06:33:55.683Z,99839.60
2022-12-08T06:36:27.111Z,99840.60
2022-12-08T06:38:56.229Z,99841.60
2022-12-08T06:41:24.915Z,99846.80
2022-12-08T06:43:57.541Z,99847.00
2022-12-08T06:46:25.596Z,99851.40
2022-12-08T06:48:53.494Z,99854.60
2022-12-08T06:51:23.634Z,99854.60
2022-12-08T06:53:51.786Z,99857.40
2022-12-08T06:56:20.664Z,99859.20
2022-12-08T06:58:52.323Z,99866.20
2022-12-08T07:01:23.503Z,99860.40
2022-12-08T07:03:51.553Z,99861.00
2022-12-08T07:06:28.307Z,99863.60
2022-12-08T07:08:56.242Z,99872.60
2022-12-08T07:11:24.133Z,99876.80
2022-12-08T07:13:52.265Z,99878.80
2022-12-08T07:16:20.359Z,99884.40
2022-12-08T07:18:48.961Z,99883.80
2022-12-08T07:21:18.198Z,99882.40
2022-12-08T07:23:52.747Z,99888.20
2022-12-08T07:26:27.135Z,99889.00
2022-12-08T07:28:55.160Z,99894.60
2022-12-08T07:31:25.420Z,99896.20
2022-12-08T07:33:54.422Z,99895.40
2022-12-08T07:36:23.742Z,99898.80
2022-12-08T07:38:53.520Z,99901.40
2022-12-08T07:41:25.694Z,99902.00
2022-12-08T07:43:53.984Z,99905.20
2022-12-08T07:46:25.110Z,99907.80
2022-12-08T07:48:55.439Z,99909.20
2022-12-08T07:51:25.188Z,99908.20
2022-12-08T07:53:54.975Z,99911.40
2022-12-08T07:56:24.323Z,99913.40
2022-12-08T07:58:52.750Z,99918.80
2022-12-08T08:01:27.618Z,99919.80
2022-12-08T08:04:05.580Z,99926.00
2022-12-08T08:06:37.093Z,99929.20
2022-12-08T08:09:05.500Z,99928.20
2022-12-08T08:11:33.586Z,99921.40
2022-12-08T08:14:01.608Z,99917.00
2022-12-08T08:16:34.948Z,99915.60
2022-12-08T08:19:06.023Z,99919.60
2022-12-08T08:21:45.480Z,99924.20
2022-12-08T08:24:14.217Z,99924.60
2022-12-08T08:26:42.264Z,99922.40
2022-12-08T08:29:10.253Z,99915.20
2022-12-08T08:31:38.391Z,99914.40
2022-12-08T08:34:06.737Z,99924.60
2022-12-08T08:36:35.716Z,99926.80
2022-12-08T08:39:04.673Z,99932.80
2022-12-08T08:41:32.860Z,99948.00
2022-12-08T08:44:00.989Z,99959.60
2022-12-08T08:46:29.018Z,99961.20
2022-12-08T08:48:57.506Z,99964.20
2022-12-08T08:51:25.508Z,99974.00
2022-12-08T08:53:53.577Z,99975.40
2022-12-08T08:56:21.604Z,99981.20
2022-12-08T08:58:51.466Z,99983.60
2022-12-08T09:01:23.602Z,99991.80
2022-12-08T09:03:56.371Z,99994.20
2022-12-08T09:06:25.681Z,99996.40
2022-12-08T09:08:53.812Z,99996.80
2022-12-08T09:11:23.671Z,99997.80
2022-12-08T09:13:54.075Z,99994.80
2022-12-08T09:16:23.151Z,99989.80
2022-12-08T09:18:52.302Z,99989.40
2022-12-08T09:21:26.365Z,99983.40
2022-12-08T09:23:58.678Z,99984.20
2022-12-08T09:26:28.599Z,99980.40
2022-12-08T09:28:58.106Z,99974.00
2022-12-08T09:31:26.122Z,99975.60
2022-12-08T09:33:54.116Z,99967.60
2022-12-08T09:36:22.122Z,99966.80
2022-12-08T09:38:51.227Z,99965.60
2022-12-08T09:41:39.227Z,99956.60
2022-12-08T09:44:49.148Z,99954.20
2022-12-08T09:47:48.640Z,99952.60
2022-12-08T09:50:32.322Z,99951.40
2022-12-08T09:53:12.438Z,99950.40
2022-12-08T09:55:53.863Z,99941.80
2022-12-08T09:58:44.585Z,99935.40
2022-12-08T10:01:13.770Z,99939.20
2022-12-08T10:03:42.564Z,99937.60
2022-12-08T10:06:41.362Z,99933.80
2022-12-08T10:09:41.312Z,99928.00
2022-12-08T10:12:56.981Z,99940.80
2022-12-08T10:15:44.765Z,99935.40
2022-12-08T10:18:25.567Z,99938.40
2022-12-08T10:20:58.040Z,99938.20
2022-12-08T10:23:58.680Z,99930.00
2022-12-08T10:26:26.819Z,99932.20
2022-12-08T10:29:01.391Z,99929.80
2022-12-08T10:31:31.192Z,99929.80
2022-12-08T10:34:10.485Z,99936.80
2022-12-08T10:36:56.347Z,99932.80
2022-12-08T10:39:44.057Z,99931.20
2022-12-08T10:42:14.722Z,99932.00
2022-12-08T10:44:57.601Z,99930.20
2022-12-08T10:47:29.545Z,99919.00
2022-12-08T10:50:21.820Z,99922.60
2022-12-08T10:53:11.220Z,99917.40
2022-12-08T10:55:50.464Z,99916.80
2022-12-08T10:58:30.556Z,99919.60
2022-12-08T11:01:20.790Z,99914.00
2022-12-08T11:04:19.758Z,99915.80
2022-12-08T11:06:51.040Z,99919.80
2022-12-08T11:09:18.831Z,99917.80
2022-12-08T11:11:59.415Z,99923.00
2022-12-08T11:14:46.099Z,99923.60
2022-12-08T11:17:24.959Z,99918.60
2022-12-08T11:20:13.075Z,99907.20
2022-12-08T11:22:55.194Z,99910.40
2022-12-08T11:25:25.846Z,99904.00
2022-12-08T11:28:00.763Z,99898.80
2022-12-08T11:30:38.375Z,99898.20
2022-12-08T11:33:20.321Z,99901.60
2022-12-08T11:35:57.896Z,99903.20
2022-12-08T11:38:27.922Z,99894.40
2022-12-08T11:41:13.997Z,99889.00
2022-12-08T11:44:11.168Z,99891.40
2022-12-08T11:46:51.725Z,99888.80
2022-12-08T11:49:20.903Z,99898.20
2022-12-08T11:52:25.395Z,99895.20
2022-12-08T11:55:04.845Z,99896.20
2022-12-08T11:57:33.071Z,99888.20
2022-12-08T12:00:02.925Z,99891.60
2022-12-08T12:02:42.701Z,99889.80
2022-12-08T12:06:18.322Z,99893.80
2022-12-08T12:09:09.459Z,99892.00
2022-12-08T12:12:13.796Z,99891.80
2022-12-08T12:14:56.932Z,99889.40
2022-12-08T12:17:36.963Z,99889.00
2022-12-08T12:20:47.239Z,99883.40
2022-12-08T12:23:19.634Z,99882.20
2022-12-08T12:25:58.071Z,99877.00
2022-12-08T12:28:49.960Z,99879.40
2022-12-08T12:31:24.074Z,99881.60
2022-12-08T12:34:03.990Z,99875.40
2022-12-08T12:36:32.921Z,99874.60
2022-12-08T12:39:01.460Z,99870.80
2022-12-08T12:41:41.994Z,99866.00
2022-12-08T12:44:12.730Z,99867.40
2022-12-08T12:46:46.386Z,99867.40
2022-12-08T12:49:39.966Z,99862.40
2022-12-08T12:52:17.219Z,99864.40
2022-12-08T12:55:10.930Z,99862.00
2022-12-08T12:57:51.598Z,99870.40
2022-12-08T13:00:24.289Z,99867.60
2022-12-08T13:02:56.694Z,99859.80
2022-12-08T13:05:31.807Z,99860.20
2022-12-08T13:08:21.108Z,99861.80
2022-12-08T13:11:11.806Z,99861.00
2022-12-08T13:13:57.433Z,99857.00
2022-12-08T13:16:31.692Z,99855.60
2022-12-08T13:19:04.919Z,99852.40
2022-12-08T13:21:38.947Z,99857.40
2022-12-08T13:24:31.204Z,99856.40
2022-12-08T13:27:32.192Z,99865.40
2022-12-08T13:30:41.608Z,99868.00
2022-12-08T13:33:39.530Z,99870.80
2022-12-08T13:36:24.479Z,99872.80
2022-12-08T13:38:58.207Z,99868.80
2022-12-08T13:41:57.338Z,99870.20
2022-12-08T13:47:59.658Z,99871.00
2022-12-08T13:52:01.134Z,99870.40
2022-12-08T13:53:56.331Z,99862.20
2022-12-08T13:59:34.656Z,99863.20
2022-12-08T14:02:40.821Z,99869.40
2022-12-08T14:05:19.458Z,99866.40
2022-12-08T14:07:55.529Z,99866.80
2022-12-08T14:10:29.419Z,99861.80
2022-12-08T14:13:02.904Z,99857.00
2022-12-08T14:15:38.430Z,99860.60
2022-12-08T14:18:28.202Z,99860.80
2022-12-08T14:21:21.119Z,99856.60
2022-12-08T14:23:49.711Z,99858.40
2022-12-08T14:26:18.199Z,99858.40
2022-12-08T14:28:46.504Z,99853.00
2022-12-08T14:31:14.907Z,99846.20
2022-12-08T14:33:43.357Z,99845.40
2022-12-08T14:36:14.867Z,99838.80
2022-12-08T14:38:42.897Z,99834.80
2022-12-08T14:41:12.542Z,99833.80
2022-12-08T14:43:41.209Z,99831.20
2022-12-08T14:46:23.430Z,99834.40
2022-12-08T14:48:56.863Z,99835.00
2022-12-08T14:51:32.389Z,99839.40
2022-12-08T14:54:07.747Z,99836.60
2022-12-08T14:56:52.383Z,99840.40
2022-12-08T14:59:23.227Z,99835.20
2022-12-08T15:02:08.934Z,99836.20
2022-12-08T15:04:46.000Z,99831.20
2022-12-08T15:07:22.762Z,99839.60
2022-12-08T15:10:14.242Z,99842.60
2022-12-08T15:13:10.403Z,99840.20
2022-12-08T15:15:55.487Z,99836.20
2022-12-08T15:18:39.054Z,99837.40
2022-12-08T15:21:13.079Z,99839.40
2022-12-08T15:23:50.779Z,99830.80
2022-12-08T15:26:24.251Z,99833.80
2022-12-08T15:28:53.936Z,99827.40
2022-12-08T15:31:22.309Z,99822.60
2022-12-08T15:33:50.220Z,99828.60
2022-12-08T15:36:18.302Z,99823.80
2022-12-08T15:38:46.155Z,99812.00
2022-12-08T15:41:15.392Z,99810.20
2022-12-08T15:43:43.431Z,99810.80
2022-12-08T15:46:12.275Z,99804.00
2022-12-08T15:48:40.634Z,99806.00
2022-12-08T15:51:08.781Z,99808.20
2022-12-08T15:53:36.618Z,99803.80
2022-12-08T15:58:57.862Z,99811.20
2022-12-08T16:01:27.304Z,99809.20
2022-12-08T16:09:40.944Z,99802.00
2022-12-08T16:13:40.359Z,99799.60
2022-12-08T16:15:51.719Z,99791.20
2022-12-08T16:18:26.970Z,99791.60
2022-12-08T16:21:22.895Z,99788.80
2022-12-08T16:23:44.703Z,99787.40
2022-12-08T16:26:54.590Z,99788.80
2022-12-08T16:29:11.174Z,99793.60
2022-12-08T16:31:39.080Z,99789.60
2022-12-08T16:34:07.141Z,99784.60
2022-12-08T16:36:34.978Z,99786.60
2022-12-08T16:39:03.953Z,99782.00
2022-12-08T16:41:50.964Z,99783.80
2022-12-08T16:44:18.852Z,99781.20
2022-12-08T16:46:46.785Z,99785.00
2022-12-08T16:49:15.821Z,99781.40
2022-12-08T16:51:44.043Z,99775.20
2022-12-08T16:54:12.163Z,99775.60
2022-12-08T16:56:40.132Z,99772.20
2022-12-08T16:59:08.098Z,99773.20
2022-12-08T17:01:36.536Z,99773.20
2022-12-08T17:04:30.581Z,99771.60
2022-12-08T17:06:53.208Z,99776.20
2022-12-08T17:09:21.218Z,99770.80
2022-12-08T17:11:49.220Z,99774.80
2022-12-08T17:14:17.904Z,99775.40
2022-12-08T17:16:46.099Z,99767.20
2022-12-08T17:19:15.802Z,99768.40
2022-12-08T17:21:44.846Z,99763.80
2022-12-08T17:24:15.839Z,99770.80
2022-12-08T17:26:47.056Z,99770.80
2022-12-08T17:29:15.116Z,99772.00
2022-12-08T17:31:43.165Z,99775.20
2022-12-08T17:34:11.458Z,99771.00
2022-12-08T17:36:39.576Z,99770.00
2022-12-08T17:39:12.118Z,99769.80
2022-12-08T17:41:44.753Z,99769.80
2022-12-08T17:44:16.793Z,99768.60
2022-12-08T17:46:52.093Z,99772.80
2022-12-08T17:49:25.805Z,99770.40
2022-12-08T17:51:57.497Z,99769.80
2022-12-08T17:54:26.921Z,99767.00
2022-12-08T17:56:58.796Z,99772.60
2022-12-08T17:59:29.073Z,99767.60
2022-12-08T18:01:59.677Z,99773.20
2022-12-08T18:04:28.897Z,99775.60
2022-12-08T18:06:59.513Z,99775.80
2022-12-08T18:09:30.625Z,99775.00
2022-12-08T18:11:58.742Z,99782.00
2022-12-08T18:14:27.637Z,99785.60
2022-12-08T18:16:55.610Z,99786.20
2022-12-08T18:19:23.764Z,99790.00
2022-12-08T18:21:51.927Z,99786.00
2022-12-08T18:24:25.149Z,99785.60
2022-12-08T18:26:53.512Z,99793.40
2022-12-08T18:29:22.830Z,99792.60
2022-12-08T18:31:52.207Z,99787.40
2022-12-08T18:34:22.998Z,99799.60
2022-12-08T18:36:51.236Z,99799.40
2022-12-08T18:39:33.239Z,99800.20
2022-12-08T18:42:22.458Z,99801.80
2022-12-08T18:44:59.077Z,99806.40
2022-12-08T18:47:27.211Z,99808.20
2022-12-08T18:49:55.514Z,99800.20
2022-12-08T18:52:31.046Z,99800.00
2022-12-08T18:55:07.491Z,99804.00
2022-12-08T18:57:41.290Z,99804.20
2022-12-08T19:00:15.147Z,99809.40
2022-12-08T19:02:46.288Z,99808.20
2022-12-08T19:05:14.970Z,99807.20
2022-12-08T19:07:43.159Z,99802.60
2022-12-08T19:10:12.016Z,99806.20
2022-12-08T19:12:41.056Z,99807.40
2022-12-08T19:15:12.500Z,99814.60
2022-12-08T19:17:41.007Z,99807.40
2022-12-08T19:20:09.884Z,99804.00
2022-12-08T19:22:38.763Z,99809.00
2022-12-08T19:25:08.573Z,99820.60
2022-12-08T19:27:36.701Z,99825.40
2022-12-08T19:30:06.269Z,99823.60
2022-12-08T19:32:41.060Z,99824.20
2022-12-08T19:35:18.883Z,99828.40
2022-12-08T19:37:55.277Z,99831.80
2022-12-08T19:40:42.073Z,99834.60
2022-12-08T19:43:39.731Z,99838.00
2022-12-08T19:46:08.863Z,99832.20
2022-12-08T19:48:37.141Z,99839.40
2022-12-08T19:51:05.994Z,99838.80
2022-12-08T19:53:34.073Z,99841.20
2022-12-08T19:56:02.505Z,99841.60
2022-12-08T19:58:30.418Z,99846.40
2022-12-08T20:01:01.172Z,99845.40
2022-12-08T20:03:31.893Z,99848.20
2022-12-08T20:06:11.987Z,99854.80
2022-12-08T20:08:48.982Z,99853.80
2022-12-08T20:11:18.988Z,99860.40
2022-12-08T20:13:48.039Z,99855.00
2022-12-08T20:16:17.316Z,99848.60
2022-12-08T20:18:47.887Z,99855.20
2022-12-08T20:21:22.426Z,99854.60
2022-12-08T20:23:52.429Z,99856.60
2022-12-08T20:26:27.167Z,99853.20
2022-12-08T20:28:57.015Z,99849.20
2022-12-08T20:31:35.653Z,99858.40
2022-12-08T20:34:12.425Z,99857.60
2022-12-08T20:36:42.346Z,99862.20
2022-12-08T20:39:18.234Z,99867.40
2022-12-08T20:41:47.116Z,99873.80
2022-12-08T20:44:15.310Z,99876.20
2022-12-08T20:46:49.094Z,99877.40
2022-12-08T20:49:17.608Z,99887.60
2022-12-08T20:51:46.693Z,99886.40
2022-12-08T20:54:15.014Z,99893.40
2022-12-08T20:56:48.065Z,99894.00
2022-12-08T20:59:18.310Z,99895.80
2022-12-08T21:01:46.812Z,99898.20
2022-12-08T21:04:16.120Z,99899.00
2022-12-08T21:06:44.351Z,99909.80
2022-12-08T21:09:12.618Z,99909.80
2022-12-08T21:11:40.701Z,99917.20
2022-12-08T21:14:14.944Z,99924.80
2022-12-08T21:16:43.744Z,99926.20
2022-12-08T21:19:15.736Z,99932.80
2022-12-08T21:21:47.996Z,99935.00
2022-12-08T21:24:21.621Z,99936.60
2022-12-08T21:26:50.436Z,99940.80
2022-12-08T21:29:18.621Z,99942.80
2022-12-08T21:31:47.035Z,99945.60
2022-12-08T21:34:15.292Z,99955.20
2022-12-08T21:36:44.896Z,99954.80
2022-12-08T21:39:15.544Z,99959.80
2022-12-08T21:42:02.913Z,99958.00
2022-12-08T21:44:36.945Z,99959.00
2022-12-08T21:47:16.079Z,99955.60
2022-12-08T21:49:48.604Z,99957.60
2022-12-08T21:52:19.274Z,99960.20
2022-12-08T21:54:47.416Z,99962.00
2022-12-08T21:57:15.616Z,99963.60
2022-12-08T21:59:45.031Z,99957.20
2022-12-08T22:02:22.429Z,99956.60
2022-12-08T22:04:52.951Z,99958.20
2022-12-08T22:07:23.531Z,99966.40
2022-12-08T22:09:52.170Z,99964.40
2022-12-08T22:12:20.569Z,99971.20
2022-12-08T22:14:51.056Z,99970.20
2022-12-08T22:17:25.924Z,99969.00
2022-12-08T22:19:58.530Z,99971.20
2022-12-08T22:22:34.921Z,99978.00
2022-12-08T22:25:06.010Z,99988.00
2022-12-08T22:27:34.786Z,99993.80
2022-12-08T22:30:05.506Z,99990.80
2022-12-08T22:32:33.974Z,99992.60
2022-12-08T22:35:05.645Z,99993.20
2022-12-08T22:37:34.169Z,99995.00
2022-12-08T22:40:03.135Z,99989.20
2022-12-08T22:42:34.971Z,99998.40
2022-12-08T22:45:02.999Z,100000.20
2022-12-08T22:47:36.879Z,100001.40
2022-12-08T22:50:07.776Z,100004.00
2022-12-08T22:52:38.725Z,100006.60
2022-12-08T22:55:08.073Z,100012.80
2022-12-08T22:57:38.857Z,100015.20
2022-12-08T23:00:13.967Z,100010.40
2022-12-08T23:02:45.774Z,100022.00
2022-12-08T23:05:14.011Z,100021.40
2022-12-08T23:07:45.459Z,100025.40
2022-12-08T23:10:25.791Z,100016.80
2022-12-08T23:12:55.959Z,100015.80
2022-12-08T23:15:27.251Z,100019.40
2022-12-08T23:17:58.793Z,100016.20
2022-12-08T23:20:31.431Z,100019.60
2022-12-08T23:23:00.876Z,100019.00
2022-12-08T23:25:31.720Z,100024.00
2022-12-08T23:28:02.877Z,100027.00
2022-12-08T23:30:33.993Z,100026.60
2022-12-08T23:33:03.041Z,100032.00
2022-12-08T23:35:31.721Z,100027.20
2022-12-08T23:37:59.868Z,100031.20
2022-12-08T23:40:27.997Z,100033.00
2022-12-08T23:43:00.173Z,100034.00
2022-12-08T23:45:28.311Z,100036.40
2022-12-08T23:47:56.436Z,100036.00
2022-12-08T23:50:24.425Z,100037.20
2022-12-08T23:52:52.365Z,100034.80
2022-12-08T23:55:20.839Z,100036.20
2022-12-08T23:57:48.753Z,100029.80
